createdAt,value
2022-09-07T00:00:52.410Z,99.90
2022-09-07T00:03:20.232Z,99.90
2022-09-07T00:05:50.440Z,99.90
2022-09-07T00:08:24.234Z,99.90
2022-09-07T00:10:53.942Z,99.90
2022-09-07T00:13:21.859Z,99.90
2022-09-07T00:15:49.438Z,99.90
2022-09-07T00:18:16.634Z,99.90
2022-09-07T00:20:44.816Z,99.90
2022-09-07T00:23:13.398Z,99.90
2022-09-07T00:25:41.225Z,99.90
2022-09-07T00:28:09.428Z,99.90
2022-09-07T00:30:56.786Z,99.90
2022-09-07T00:33:27.525Z,99.90
2022-09-07T00:35:55.209Z,99.90
2022-09-07T00:38:24.535Z,99.90
2022-09-07T00:40:52.011Z,99.90
2022-09-07T00:43:56.185Z,99.90
2022-09-07T00:46:26.359Z,99.90
2022-09-07T00:49:19.224Z,99.90
2022-09-07T00:51:53.407Z,99.90
2022-09-07T00:54:31.615Z,99.90
2022-09-07T00:56:59.325Z,99.90
2022-09-07T00:59:31.287Z,99.90
2022-09-07T01:01:58.560Z,99.90
2022-09-07T01:04:27.256Z,99.90
2022-09-07T01:06:55.820Z,99.90
2022-09-07T01:09:25.672Z,99.90
2022-09-07T01:11:54.949Z,99.90
2022-09-07T01:14:44.720Z,99.90
2022-09-07T01:17:26.713Z,99.90
2022-09-07T01:20:06.290Z,99.90
2022-09-07T01:23:02.814Z,99.90
2022-09-07T01:25:48.292Z,99.90
2022-09-07T01:28:36.713Z,99.90
2022-09-07T01:31:30.270Z,99.90
2022-09-07T01:34:19.118Z,99.90
2022-09-07T01:37:08.387Z,99.90
2022-09-07T01:39:59.247Z,99.90
2022-09-07T01:42:32.610Z,99.90
2022-09-07T01:45:11.338Z,99.90
2022-09-07T01:47:49.910Z,99.90
2022-09-07T01:50:44.933Z,99.90
2022-09-07T01:53:18.476Z,99.90
2022-09-07T01:55:57.429Z,99.90
2022-09-07T01:58:26.673Z,99.90
2022-09-07T02:01:01.941Z,99.90
2022-09-07T02:03:38.053Z,99.90
2022-09-07T02:06:33.764Z,99.90
2022-09-07T02:09:10.816Z,99.90
2022-09-07T02:11:44.277Z,99.90
2022-09-07T02:14:18.435Z,99.90
2022-09-07T02:17:09.840Z,99.90
2022-09-07T02:19:46.240Z,99.90
2022-09-07T02:22:18.521Z,99.90
2022-09-07T02:24:49.956Z,99.90
2022-09-07T02:27:24.521Z,99.90
2022-09-07T02:29:52.181Z,99.90
2022-09-07T02:32:19.135Z,99.90
2022-09-07T02:34:46.360Z,99.90
2022-09-07T02:37:14.966Z,99.90
2022-09-07T02:39:42.058Z,99.90
2022-09-07T02:42:09.524Z,99.90
2022-09-07T02:44:38.943Z,99.90
2022-09-07T02:47:49.956Z,99.90
2022-09-07T02:50:32.139Z,99.90
2022-09-07T02:53:01.927Z,99.90
2022-09-07T02:56:07.061Z,99.90
2022-09-07T02:58:54.463Z,99.90
2022-09-07T03:01:30.106Z,99.90
2022-09-07T03:04:18.646Z,99.90
2022-09-07T03:07:10.137Z,99.90
2022-09-07T03:09:41.953Z,99.90
2022-09-07T03:12:09.806Z,99.90
2022-09-07T03:14:40.580Z,99.90
2022-09-07T03:17:07.964Z,99.90
2022-09-07T03:19:34.974Z,99.90
2022-09-07T03:22:02.237Z,99.90
2022-09-07T03:24:29.042Z,99.90
2022-09-07T03:26:57.279Z,99.90
2022-09-07T03:29:24.254Z,99.90
2022-09-07T03:31:51.175Z,99.90
2022-09-07T03:34:18.002Z,99.90
2022-09-07T03:36:44.751Z,99.90
2022-09-07T03:39:12.373Z,99.90
2022-09-07T03:41:39.523Z,99.90
2022-09-07T03:44:07.967Z,99.90
2022-09-07T03:46:35.653Z,99.90
2022-09-07T03:49:02.502Z,99.90
2022-09-07T03:51:29.491Z,99.90
2022-09-07T03:53:57.269Z,99.90
2022-09-07T03:56:25.830Z,99.90
2022-09-07T03:58:54.210Z,99.90
2022-09-07T04:01:24.531Z,99.90
2022-09-07T04:03:52.272Z,99.90
2022-09-07T04:06:19.942Z,99.90
2022-09-07T04:08:46.891Z,99.90
2022-09-07T04:11:17.063Z,99.90
2022-09-07T04:13:44.492Z,99.90
2022-09-07T04:16:30.394Z,99.90
2022-09-07T04:18:59.379Z,99.90
2022-09-07T04:21:27.891Z,99.90
2022-09-07T04:23:54.932Z,99.90
2022-09-07T04:26:27.607Z,99.90
2022-09-07T04:28:55.160Z,99.90
2022-09-07T04:31:23.172Z,99.90
2022-09-07T04:33:51.249Z,99.90
2022-09-07T04:36:19.474Z,99.90
2022-09-07T04:38:47.003Z,99.90
2022-09-07T04:41:16.141Z,99.90
2022-09-07T04:43:43.493Z,99.90
2022-09-07T04:46:23.535Z,99.90
2022-09-07T04:48:52.821Z,99.90
2022-09-07T04:51:22.029Z,99.90
2022-09-07T04:53:53.284Z,99.90
2022-09-07T04:56:21.460Z,99.90
2022-09-07T04:58:49.094Z,99.90
2022-09-07T05:01:19.321Z,99.90
2022-09-07T05:03:46.804Z,99.90
2022-09-07T05:06:14.215Z,99.90
2022-09-07T05:08:44.870Z,99.90
2022-09-07T05:11:13.617Z,99.90
2022-09-07T05:13:40.772Z,99.90
2022-09-07T05:16:13.752Z,99.90
2022-09-07T05:18:40.753Z,99.90
2022-09-07T05:21:09.873Z,99.90
2022-09-07T05:23:36.765Z,99.90
2022-09-07T05:26:05.775Z,99.90
2022-09-07T05:28:34.382Z,99.90
2022-09-07T05:36:32.290Z,99.90
2022-09-07T05:38:59.786Z,99.90
2022-09-07T05:41:27.499Z,99.90
2022-09-07T05:46:42.306Z,99.90
2022-09-07T05:49:09.957Z,99.90
2022-09-07T05:51:37.353Z,99.90
2022-09-07T05:54:04.416Z,99.90
2022-09-07T05:56:35.290Z,99.90
2022-09-07T05:59:02.155Z,99.90
2022-09-07T06:01:29.049Z,99.90
2022-09-07T06:03:55.912Z,99.90
2022-09-07T06:06:22.840Z,99.90
2022-09-07T06:08:52.349Z,99.90
2022-09-07T06:11:23.831Z,99.90
2022-09-07T06:13:51.963Z,99.90
2022-09-07T06:16:20.077Z,99.90
2022-09-07T06:18:48.656Z,99.90
2022-09-07T06:21:21.184Z,99.90
2022-09-07T06:23:49.285Z,99.90
2022-09-07T06:26:17.424Z,99.90
2022-09-07T06:28:50.808Z,99.90
2022-09-07T06:31:21.549Z,99.90
2022-09-07T06:33:49.832Z,99.90
2022-09-07T06:36:22.100Z,99.90
2022-09-07T06:38:50.025Z,99.90
2022-09-07T06:44:06.913Z,99.90
2022-09-07T06:49:23.440Z,99.90
2022-09-07T06:51:50.401Z,99.90
2022-09-07T06:57:09.039Z,99.90
2022-09-07T06:59:37.734Z,99.90
2022-09-07T07:02:05.903Z,99.90
2022-09-07T07:04:37.728Z,99.90
2022-09-07T07:07:11.581Z,99.90
2022-09-07T07:09:38.960Z,99.90
2022-09-07T07:12:06.261Z,99.90
2022-09-07T07:14:34.632Z,99.90
2022-09-07T07:17:02.547Z,99.90
2022-09-07T07:19:29.733Z,99.90
2022-09-07T07:24:43.535Z,99.90
2022-09-07T07:27:10.327Z,99.90
2022-09-07T07:29:37.276Z,99.90
2022-09-07T07:32:04.389Z,99.90
2022-09-07T07:34:31.308Z,99.90
2022-09-07T07:36:58.169Z,99.90
2022-09-07T07:42:12.345Z,99.90
2022-09-07T07:44:39.253Z,99.90
2022-09-07T07:47:06.139Z,99.90
2022-09-07T07:49:33.075Z,99.90
2022-09-07T07:54:48.233Z,99.90
2022-09-07T07:57:16.809Z,99.90
2022-09-07T07:59:43.669Z,99.90
2022-09-07T08:02:15.384Z,99.90
2022-09-07T08:04:42.764Z,99.90
2022-09-07T08:07:11.807Z,99.90
2022-09-07T08:09:40.425Z,99.90
2022-09-07T08:12:08.246Z,99.90
2022-09-07T08:14:40.535Z,99.90
2022-09-07T08:17:10.119Z,99.90
2022-09-07T08:19:37.699Z,99.90
2022-09-07T08:22:04.884Z,99.90
2022-09-07T08:24:31.957Z,99.90
2022-09-07T08:26:59.149Z,99.90
2022-09-07T08:29:27.201Z,99.90
2022-09-07T08:31:54.683Z,99.90
2022-09-07T08:34:21.884Z,99.90
2022-09-07T08:36:48.730Z,99.90
2022-09-07T08:39:16.810Z,99.90
2022-09-07T08:41:52.606Z,99.90
2022-09-07T08:44:26.860Z,99.90
2022-09-07T08:47:18.791Z,99.90
2022-09-07T08:49:54.341Z,99.90
2022-09-07T08:52:38.511Z,99.90
2022-09-07T08:55:18.005Z,99.90
2022-09-07T08:57:56.185Z,99.90
2022-09-07T09:00:23.170Z,99.90
2022-09-07T09:05:42.287Z,99.90
2022-09-07T09:08:31.416Z,99.90
2022-09-07T09:11:12.384Z,99.90
2022-09-07T09:17:12.055Z,99.90
2022-09-07T09:19:56.581Z,99.90
2022-09-07T09:22:29.423Z,99.90
2022-09-07T09:25:18.264Z,99.90
2022-09-07T09:27:45.483Z,99.90
2022-09-07T09:30:15.048Z,99.90
2022-09-07T09:32:44.885Z,99.40
2022-09-07T09:35:20.900Z,98.20
2022-09-07T09:37:47.841Z,97.60
2022-09-07T09:40:24.818Z,96.40
2022-09-07T09:43:02.398Z,96.00
2022-09-07T09:48:35.156Z,95.80
2022-09-07T09:54:23.726Z,96.00
2022-09-07T09:56:51.206Z,95.60
2022-09-07T10:05:47.727Z,95.40
2022-09-07T10:08:27.007Z,95.80
2022-09-07T10:10:57.515Z,94.40
2022-09-07T10:13:35.329Z,93.90
2022-09-07T10:16:15.215Z,92.90
2022-09-07T10:19:05.596Z,91.30
2022-09-07T10:21:40.078Z,90.00
2022-09-07T10:27:36.066Z,87.90
2022-09-07T10:30:20.015Z,86.60
2022-09-07T10:33:07.014Z,85.60
2022-09-07T10:36:04.367Z,84.10
2022-09-07T10:39:01.078Z,83.60
2022-09-07T10:42:14.121Z,84.30
2022-09-07T10:45:20.633Z,85.60
2022-09-07T10:48:04.162Z,82.70
2022-09-07T10:50:39.509Z,82.00
2022-09-07T10:53:39.770Z,79.10
2022-09-07T10:56:17.379Z,80.70
2022-09-07T10:59:08.109Z,85.10
2022-09-07T11:02:03.700Z,84.90
2022-09-07T11:04:59.596Z,86.30
2022-09-07T11:07:38.360Z,85.90
2022-09-07T11:10:26.294Z,84.80
2022-09-07T11:12:57.217Z,84.40
2022-09-07T11:15:53.217Z,84.40
2022-09-07T11:18:52.074Z,83.00
2022-09-07T11:24:24.624Z,79.00
2022-09-07T11:26:56.343Z,78.50
2022-09-07T11:29:35.885Z,79.40
2022-09-07T11:32:27.783Z,76.60
2022-09-07T11:35:01.510Z,75.20
2022-09-07T11:37:59.523Z,74.70
2022-09-07T11:40:42.073Z,75.30
2022-09-07T11:43:25.598Z,75.80
2022-09-07T11:45:56.788Z,74.80
2022-09-07T11:48:31.334Z,71.90
2022-09-07T11:51:10.640Z,71.70
2022-09-07T11:53:42.556Z,70.60
2022-09-07T11:56:20.542Z,72.40
2022-09-07T11:59:20.467Z,75.60
2022-09-07T12:02:15.061Z,78.80
2022-09-07T12:04:56.613Z,79.60
2022-09-07T12:07:50.210Z,78.60
2022-09-07T12:10:33.119Z,76.40
2022-09-07T12:13:02.927Z,76.20
2022-09-07T12:15:47.721Z,76.90
2022-09-07T12:18:33.090Z,76.30
2022-09-07T12:21:00.011Z,74.90
2022-09-07T12:23:30.103Z,73.20
2022-09-07T12:26:34.217Z,73.30
2022-09-07T12:29:00.944Z,74.30
2022-09-07T12:34:36.035Z,75.10
2022-09-07T12:37:12.393Z,74.90
2022-09-07T12:39:43.722Z,73.90
2022-09-07T12:42:32.936Z,72.20
2022-09-07T12:45:39.188Z,72.60
2022-09-07T12:48:18.025Z,73.00
2022-09-07T12:51:00.064Z,74.50
2022-09-07T12:53:55.495Z,73.00
2022-09-07T12:56:45.189Z,71.20
2022-09-07T12:59:32.197Z,70.40
2022-09-07T13:02:39.003Z,71.10
2022-09-07T13:05:26.840Z,70.60
2022-09-07T13:08:20.913Z,67.50
2022-09-07T13:10:48.529Z,66.00
2022-09-07T13:13:15.375Z,65.30
2022-09-07T13:15:48.774Z,66.20
2022-09-07T13:18:28.339Z,67.20
2022-09-07T13:21:07.609Z,68.60
2022-09-07T13:24:45.539Z,71.70
2022-09-07T13:26:51.423Z,72.50
2022-09-07T13:29:23.923Z,72.40
2022-09-07T13:32:19.411Z,72.80
2022-09-07T13:34:51.876Z,72.10
2022-09-07T13:37:22.874Z,68.70
2022-09-07T13:39:52.839Z,66.80
2022-09-07T13:42:25.256Z,65.80
2022-09-07T13:44:56.224Z,65.20
2022-09-07T13:47:40.324Z,65.90
2022-09-07T13:50:22.572Z,68.00
2022-09-07T13:53:26.323Z,66.60
2022-09-07T13:56:20.254Z,65.70
2022-09-07T13:58:54.623Z,63.90
2022-09-07T14:01:26.241Z,64.10
2022-09-07T14:04:06.645Z,65.10
2022-09-07T14:06:38.379Z,65.60
2022-09-07T14:09:17.929Z,67.60
2022-09-07T14:11:50.172Z,66.00
2022-09-07T14:14:29.535Z,64.20
2022-09-07T14:17:10.903Z,64.20
2022-09-07T14:19:45.465Z,65.20
2022-09-07T14:22:21.310Z,66.90
2022-09-07T14:24:54.243Z,67.40
2022-09-07T14:27:34.302Z,67.10
2022-09-07T14:30:19.245Z,66.00
2022-09-07T14:32:47.933Z,65.90
2022-09-07T14:35:17.477Z,65.00
2022-09-07T14:37:46.143Z,65.50
2022-09-07T14:40:22.229Z,66.20
2022-09-07T14:42:50.126Z,67.80
2022-09-07T14:45:23.103Z,67.60
2022-09-07T14:47:52.498Z,68.80
2022-09-07T14:50:24.033Z,69.40
2022-09-07T14:55:46.301Z,70.50
2022-09-07T14:58:15.693Z,71.00
2022-09-07T15:00:45.163Z,72.10
2022-09-07T15:03:33.774Z,72.70
2022-09-07T15:06:01.837Z,72.20
2022-09-07T15:08:46.452Z,73.00
2022-09-07T15:11:35.947Z,74.00
2022-09-07T15:14:10.680Z,74.10
2022-09-07T15:16:40.582Z,74.60
2022-09-07T15:19:16.757Z,74.70
2022-09-07T15:21:44.930Z,74.50
2022-09-07T15:24:12.104Z,75.00
2022-09-07T15:27:02.913Z,74.20
2022-09-07T15:29:30.614Z,73.70
2022-09-07T15:32:04.073Z,73.90
2022-09-07T15:34:32.272Z,73.50
2022-09-07T15:37:00.298Z,73.40
2022-09-07T15:39:29.827Z,73.50
2022-09-07T15:41:58.227Z,73.90
2022-09-07T15:44:28.398Z,73.90
2022-09-07T15:49:47.757Z,75.20
2022-09-07T15:52:17.161Z,76.00
2022-09-07T15:54:43.966Z,75.40
2022-09-07T16:00:01.220Z,73.60
2022-09-07T16:05:15.132Z,71.20
2022-09-07T16:10:31.043Z,72.40
2022-09-07T16:13:02.784Z,73.80
2022-09-07T16:15:45.920Z,74.70
2022-09-07T16:18:16.524Z,75.20
2022-09-07T16:20:43.688Z,75.90
2022-09-07T16:23:14.299Z,75.40
2022-09-07T16:25:42.204Z,76.20
2022-09-07T16:28:09.724Z,76.80
2022-09-07T16:30:40.581Z,77.40
2022-09-07T16:33:07.536Z,78.00
2022-09-07T16:35:34.696Z,78.60
2022-09-07T16:40:50.570Z,79.60
2022-09-07T16:43:19.975Z,79.80
2022-09-07T16:46:02.966Z,80.10
2022-09-07T16:48:31.453Z,80.40
2022-09-07T16:51:01.976Z,80.10
2022-09-07T16:53:31.398Z,81.00
2022-09-07T16:56:24.832Z,80.50
2022-09-07T16:58:55.693Z,80.80
2022-09-07T17:01:34.523Z,81.00
2022-09-07T17:04:06.668Z,81.20
2022-09-07T17:06:36.629Z,81.50
2022-09-07T17:09:03.875Z,82.00
2022-09-07T17:11:34.102Z,82.30
2022-09-07T17:14:01.600Z,83.20
2022-09-07T17:16:34.027Z,83.50
2022-09-07T17:21:53.571Z,84.60
2022-09-07T17:24:20.431Z,85.10
2022-09-07T17:26:47.501Z,85.40
2022-09-07T17:29:14.465Z,85.80
2022-09-07T17:34:31.345Z,86.70
2022-09-07T17:37:00.528Z,87.20
2022-09-07T17:39:28.057Z,87.50
2022-09-07T17:41:54.994Z,88.20
2022-09-07T17:44:23.288Z,88.60
2022-09-07T17:46:50.665Z,89.60
2022-09-07T17:49:17.632Z,90.10
2022-09-07T17:51:45.483Z,90.30
2022-09-07T17:54:17.629Z,90.60
2022-09-07T17:56:45.579Z,91.00
2022-09-07T18:01:59.887Z,91.80
2022-09-07T18:04:28.291Z,92.10
2022-09-07T18:06:55.194Z,92.20
2022-09-07T18:09:22.012Z,92.00
2022-09-07T18:11:49.774Z,92.30
2022-09-07T18:14:18.118Z,92.80
2022-09-07T18:16:46.454Z,92.60
2022-09-07T18:19:14.270Z,92.90
2022-09-07T18:21:43.652Z,92.80
2022-09-07T18:24:23.965Z,93.00
2022-09-07T18:26:53.113Z,93.10
2022-09-07T18:29:29.322Z,93.40
2022-09-07T18:31:58.500Z,93.60
2022-09-07T18:34:25.953Z,93.90
2022-09-07T18:36:52.944Z,94.10
2022-09-07T18:39:19.687Z,94.40
2022-09-07T18:41:46.536Z,94.60
2022-09-07T18:47:00.654Z,95.00
2022-09-07T18:49:27.471Z,95.20
2022-09-07T18:54:41.541Z,96.10
2022-09-07T18:57:08.674Z,96.40
2022-09-07T18:59:35.541Z,96.90
2022-09-07T19:02:04.785Z,97.80
2022-09-07T19:07:20.569Z,98.50
2022-09-07T19:09:48.252Z,98.60
2022-09-07T19:12:15.826Z,98.30
2022-09-07T19:14:42.596Z,98.30
2022-09-07T19:17:11.693Z,98.30
2022-09-07T19:19:39.939Z,98.60
2022-09-07T19:22:06.730Z,99.20
2022-09-07T19:24:34.122Z,99.50
2022-09-07T19:27:01.299Z,99.60
2022-09-07T19:29:29.001Z,99.90
2022-09-07T19:32:05.223Z,99.90
2022-09-07T19:34:35.936Z,99.90
2022-09-07T19:37:05.602Z,99.90
2022-09-07T19:39:32.575Z,99.90
2022-09-07T19:41:59.450Z,99.90
2022-09-07T19:44:26.247Z,99.90
2022-09-07T19:46:53.012Z,99.90
2022-09-07T19:49:20.151Z,99.90
2022-09-07T19:51:50.114Z,99.90
2022-09-07T19:54:16.984Z,99.90
2022-09-07T19:56:44.686Z,99.90
2022-09-07T19:59:11.833Z,99.90
2022-09-07T20:01:40.534Z,99.90
2022-09-07T20:04:16.044Z,99.90
2022-09-07T20:06:47.983Z,99.90
2022-09-07T20:09:14.928Z,99.90
2022-09-07T20:11:46.088Z,99.90
2022-09-07T20:14:14.406Z,99.90
2022-09-07T20:16:41.683Z,99.90
2022-09-07T20:19:11.530Z,99.90
2022-09-07T20:21:38.352Z,99.90
2022-09-07T20:24:05.663Z,99.90
2022-09-07T20:26:32.707Z,99.90
2022-09-07T20:29:23.423Z,99.90
2022-09-07T20:31:47.222Z,99.90
2022-09-07T20:34:14.557Z,99.90
2022-09-07T20:36:41.472Z,99.90
2022-09-07T20:39:12.219Z,99.90
2022-09-07T20:41:39.006Z,99.90
2022-09-07T20:44:05.872Z,99.90
2022-09-07T20:46:32.743Z,99.90
2022-09-07T20:49:00.237Z,99.90
2022-09-07T20:51:27.468Z,99.90
2022-09-07T20:53:55.896Z,99.90
2022-09-07T20:56:28.238Z,99.90
2022-09-07T20:59:00.130Z,99.90
2022-09-07T21:01:28.569Z,99.90
2022-09-07T21:03:57.992Z,99.90
2022-09-07T21:06:26.163Z,99.90
2022-09-07T21:08:54.497Z,99.90
2022-09-07T21:11:25.281Z,99.90
2022-09-07T21:14:21.623Z,99.90
2022-09-07T21:16:48.385Z,99.90
2022-09-07T21:19:15.764Z,99.90
2022-09-07T21:21:43.468Z,99.90
2022-09-07T21:24:28.501Z,99.90
2022-09-07T21:26:55.297Z,99.90
2022-09-07T21:29:24.533Z,99.90
2022-09-07T21:31:53.958Z,99.90
2022-09-07T21:34:21.347Z,99.90
2022-09-07T21:36:48.172Z,99.90
2022-09-07T21:39:16.012Z,99.90
2022-09-07T21:41:43.907Z,99.90
2022-09-07T21:44:16.307Z,99.90
2022-09-07T21:46:43.996Z,99.90
2022-09-07T21:49:11.601Z,99.90
2022-09-07T21:51:38.430Z,99.90
2022-09-07T21:54:06.024Z,99.90
2022-09-07T21:56:33.131Z,99.90
2022-09-07T21:59:01.935Z,99.90
2022-09-07T22:01:30.127Z,99.90
2022-09-07T22:04:00.148Z,99.90
2022-09-07T22:06:27.968Z,99.90
2022-09-07T22:08:55.888Z,99.90
2022-09-07T22:11:24.628Z,99.90
2022-09-07T22:13:55.787Z,99.90
2022-09-07T22:16:22.760Z,99.90
2022-09-07T22:18:49.862Z,99.90
2022-09-07T22:21:20.555Z,99.90
2022-09-07T22:23:50.722Z,99.90
2022-09-07T22:26:20.458Z,99.90
2022-09-07T22:28:47.691Z,99.90
2022-09-07T22:31:20.660Z,99.90
2022-09-07T22:33:49.277Z,99.90
2022-09-07T22:36:20.716Z,99.90
2022-09-07T22:38:49.529Z,99.90
2022-09-07T22:41:18.491Z,99.90
2022-09-07T22:43:46.006Z,99.90
2022-09-07T22:46:13.765Z,99.90
2022-09-07T22:48:41.427Z,99.90
2022-09-07T22:51:09.328Z,99.90
2022-09-07T22:53:38.528Z,99.90
2022-09-07T22:56:18.445Z,99.90
2022-09-07T22:58:46.986Z,99.90
2022-09-07T23:01:13.866Z,99.90
2022-09-07T23:03:40.862Z,99.90
2022-09-07T23:06:08.743Z,99.90
2022-09-07T23:08:35.435Z,99.90
2022-09-07T23:11:04.905Z,99.90
2022-09-07T23:13:32.897Z,99.90
2022-09-07T23:16:05.962Z,99.90
2022-09-07T23:18:34.149Z,99.90
2022-09-07T23:21:02.662Z,99.90
2022-09-07T23:23:29.646Z,99.90
2022-09-07T23:25:56.716Z,99.90
2022-09-07T23:28:23.474Z,99.90
2022-09-07T23:30:50.882Z,99.90
2022-09-07T23:33:17.946Z,99.90
2022-09-07T23:35:59.467Z,99.90
2022-09-07T23:38:27.331Z,99.90
2022-09-07T23:40:55.062Z,99.90
2022-09-07T23:43:23.936Z,99.90
2022-09-07T23:45:51.025Z,99.90
2022-09-07T23:48:17.831Z,99.90
2022-09-07T23:50:45.711Z,99.90
2022-09-07T23:53:13.365Z,99.90
2022-09-07T23:55:40.940Z,99.90
2022-09-07T23:58:08.425Z,99.90
